createdAt,value
2019-02-16T00:00:56.975Z,1015.08
2019-02-16T00:01:56.955Z,1015.10
2019-02-16T00:02:56.922Z,1015.09
2019-02-16T00:03:56.896Z,1015.06
2019-02-16T00:04:56.873Z,1015.10
2019-02-16T00:05:56.853Z,1015.10
2019-02-16T00:06:56.836Z,1015.12
2019-02-16T00:07:56.799Z,1015.16
2019-02-16T00:08:56.774Z,1015.13
2019-02-16T00:09:56.754Z,1015.11
2019-02-16T00:10:56.728Z,1015.15
2019-02-16T00:11:56.703Z,1015.20
2019-02-16T00:12:56.681Z,1015.10
2019-02-16T00:13:56.687Z,1015.13
2019-02-16T00:14:56.632Z,1015.13
2019-02-16T00:15:56.608Z,1015.09
2019-02-16T00:16:56.584Z,1015.05
2019-02-16T00:17:56.559Z,1015.10
2019-02-16T00:18:56.533Z,1015.08
2019-02-16T00:19:56.535Z,1015.07
2019-02-16T00:21:03.668Z,1015.05
2019-02-16T00:21:56.465Z,1015.07
2019-02-16T00:22:56.471Z,1015.10
2019-02-16T00:23:56.436Z,1015.12
2019-02-16T00:24:56.394Z,1015.11
2019-02-16T00:25:56.365Z,1015.13
2019-02-16T00:26:56.341Z,1015.11
2019-02-16T00:27:56.319Z,1015.10
2019-02-16T00:28:56.298Z,1015.10
2019-02-16T00:29:56.268Z,1015.13
2019-02-16T00:30:56.259Z,1015.15
2019-02-16T00:31:56.220Z,1015.14
2019-02-16T00:32:56.199Z,1015.15
2019-02-16T00:33:56.172Z,1015.15
2019-02-16T00:34:56.148Z,1015.10
2019-02-16T00:35:56.129Z,1015.12
2019-02-16T00:36:56.100Z,1015.13
2019-02-16T00:37:56.083Z,1015.13
2019-02-16T00:38:56.053Z,1015.09
2019-02-16T00:39:56.027Z,1015.10
2019-02-16T00:40:56.004Z,1015.16
2019-02-16T00:41:55.981Z,1015.17
2019-02-16T00:42:55.956Z,1015.15
2019-02-16T00:43:55.929Z,1015.18
2019-02-16T00:44:55.907Z,1015.14
2019-02-16T00:45:55.890Z,1015.13
2019-02-16T00:46:55.855Z,1015.16
2019-02-16T00:47:55.863Z,1015.17
2019-02-16T00:48:55.809Z,1015.15
2019-02-16T00:49:55.782Z,1015.15
2019-02-16T00:50:55.763Z,1015.19
2019-02-16T00:51:55.733Z,1015.20
2019-02-16T00:52:55.729Z,1015.20
2019-02-16T00:53:55.702Z,1015.15
2019-02-16T00:54:55.660Z,1015.13
2019-02-16T00:55:55.653Z,1015.17
2019-02-16T00:56:55.613Z,1015.18
2019-02-16T00:57:55.587Z,1015.20
2019-02-16T00:58:55.564Z,1015.17
2019-02-16T00:59:55.543Z,1015.14
2019-02-16T01:00:55.516Z,1015.13
2019-02-16T01:01:55.489Z,1015.17
2019-02-16T01:02:55.466Z,1015.17
2019-02-16T01:03:55.442Z,1015.16
2019-02-16T01:04:55.418Z,1015.17
2019-02-16T01:05:55.401Z,1015.13
2019-02-16T01:06:55.365Z,1015.07
2019-02-16T01:07:55.343Z,1015.16
2019-02-16T01:08:55.321Z,1015.12
2019-02-16T01:09:55.355Z,1015.10
2019-02-16T01:10:55.273Z,1015.13
2019-02-16T01:11:55.247Z,1015.10
2019-02-16T01:12:55.234Z,1015.10
2019-02-16T01:13:55.198Z,1015.10
2019-02-16T01:14:55.172Z,1015.06
2019-02-16T01:15:55.151Z,1015.08
2019-02-16T01:16:55.129Z,1015.05
2019-02-16T01:17:55.103Z,1015.05
2019-02-16T01:18:55.076Z,1015.05
2019-02-16T01:19:55.055Z,1015.02
2019-02-16T01:20:55.032Z,1015.00
2019-02-16T01:21:55.002Z,1014.98
2019-02-16T01:22:54.982Z,1015.01
2019-02-16T01:23:54.955Z,1015.02
2019-02-16T01:24:54.930Z,1014.99
2019-02-16T01:25:54.906Z,1015.04
2019-02-16T01:26:54.879Z,1015.08
2019-02-16T01:27:54.859Z,1015.06
2019-02-16T01:28:54.832Z,1015.05
2019-02-16T01:29:54.808Z,1015.07
2019-02-16T01:30:54.803Z,1015.03
2019-02-16T01:31:54.759Z,1015.07
2019-02-16T01:32:54.751Z,1015.03
2019-02-16T01:33:54.707Z,1015.07
2019-02-16T01:34:54.687Z,1015.03
2019-02-16T01:35:54.660Z,1015.05
2019-02-16T01:36:54.638Z,1015.08
2019-02-16T01:37:54.614Z,1015.09
2019-02-16T01:38:54.588Z,1015.09
2019-02-16T01:39:54.569Z,1015.08
2019-02-16T01:40:54.539Z,1015.13
2019-02-16T01:41:54.513Z,1015.11
2019-02-16T01:42:54.488Z,1015.15
2019-02-16T01:43:54.466Z,1015.13
2019-02-16T01:44:54.443Z,1015.11
2019-02-16T01:45:54.418Z,1015.15
2019-02-16T01:46:54.392Z,1015.16
2019-02-16T01:47:54.368Z,1015.15
2019-02-16T01:48:54.352Z,1015.15
2019-02-16T01:49:54.330Z,1015.16
2019-02-16T01:50:54.295Z,1015.14
2019-02-16T01:51:54.270Z,1015.18
2019-02-16T01:52:54.242Z,1015.19
2019-02-16T01:53:54.228Z,1015.15
2019-02-16T01:54:54.195Z,1015.16
2019-02-16T01:55:54.176Z,1015.18
2019-02-16T01:56:54.184Z,1015.18
2019-02-16T01:57:54.124Z,1015.20
2019-02-16T01:58:54.097Z,1015.19
2019-02-16T01:59:54.074Z,1015.24
2019-02-16T02:00:54.049Z,1015.25
2019-02-16T02:01:54.024Z,1015.22
2019-02-16T02:02:54.001Z,1015.22
2019-02-16T02:03:53.983Z,1015.22
2019-02-16T02:04:53.951Z,1015.22
2019-02-16T02:05:53.927Z,1015.24
2019-02-16T02:06:53.898Z,1015.21
2019-02-16T02:07:53.882Z,1015.22
2019-02-16T02:08:53.850Z,1015.28
2019-02-16T02:09:53.826Z,1015.25
2019-02-16T02:10:53.804Z,1015.27
2019-02-16T02:11:53.777Z,1015.25
2019-02-16T02:12:53.749Z,1015.25
2019-02-16T02:13:53.728Z,1015.27
2019-02-16T02:14:53.705Z,1015.27
2019-02-16T02:15:53.673Z,1015.29
2019-02-16T02:16:53.656Z,1015.26
2019-02-16T02:17:53.632Z,1015.22
2019-02-16T02:18:53.609Z,1015.19
2019-02-16T02:19:53.579Z,1015.20
2019-02-16T02:20:53.556Z,1015.18
2019-02-16T02:21:53.534Z,1015.21
2019-02-16T02:22:53.506Z,1015.17
2019-02-16T02:23:53.482Z,1015.15
2019-02-16T02:24:53.460Z,1015.22
2019-02-16T02:25:53.436Z,1015.18
2019-02-16T02:26:53.685Z,1015.17
2019-02-16T02:27:53.385Z,1015.15
2019-02-16T02:28:53.363Z,1015.19
2019-02-16T02:29:53.337Z,1015.15
2019-02-16T02:30:53.309Z,1015.09
2019-02-16T02:31:53.305Z,1015.08
2019-02-16T02:32:53.260Z,1015.12
2019-02-16T02:33:53.235Z,1015.09
2019-02-16T02:34:53.239Z,1015.06
2019-02-16T02:35:53.187Z,1015.05
2019-02-16T02:36:53.166Z,1015.04
2019-02-16T02:37:53.139Z,1015.00
2019-02-16T02:38:53.114Z,1014.96
2019-02-16T02:39:53.106Z,1014.95
2019-02-16T02:40:53.069Z,1014.93
2019-02-16T02:41:53.041Z,1014.94
2019-02-16T02:42:53.019Z,1014.94
2019-02-16T02:43:52.993Z,1014.96
2019-02-16T02:44:52.970Z,1014.97
2019-02-16T02:45:52.949Z,1014.97
2019-02-16T02:46:52.924Z,1014.91
2019-02-16T02:47:52.893Z,1014.91
2019-02-16T02:48:52.877Z,1014.93
2019-02-16T02:49:52.847Z,1014.94
2019-02-16T02:50:52.819Z,1014.95
2019-02-16T02:51:52.796Z,1014.95
2019-02-16T02:52:52.771Z,1014.93
2019-02-16T02:53:52.749Z,1014.95
2019-02-16T02:54:52.721Z,1014.98
2019-02-16T02:55:52.700Z,1014.95
2019-02-16T02:56:52.677Z,1014.94
2019-02-16T02:57:52.656Z,1014.92
2019-02-16T02:58:52.627Z,1014.93
2019-02-16T02:59:52.604Z,1014.95
2019-02-16T03:00:52.574Z,1014.92
2019-02-16T03:01:52.550Z,1014.91
2019-02-16T03:02:52.527Z,1014.91
2019-02-16T03:03:52.522Z,1014.96
2019-02-16T03:04:52.483Z,1014.96
2019-02-16T03:05:52.450Z,1014.94
2019-02-16T03:06:52.450Z,1014.94
2019-02-16T03:07:52.405Z,1014.97
2019-02-16T03:08:52.381Z,1014.98
2019-02-16T03:09:52.361Z,1014.98
2019-02-16T03:10:52.332Z,1015.00
2019-02-16T03:11:52.310Z,1015.00
2019-02-16T03:12:52.297Z,1015.01
2019-02-16T03:13:52.259Z,1015.00
2019-02-16T03:14:52.232Z,1014.98
2019-02-16T03:15:52.221Z,1014.97
2019-02-16T03:16:52.212Z,1014.98
2019-02-16T03:17:52.153Z,1014.95
2019-02-16T03:18:52.147Z,1014.93
2019-02-16T03:19:52.115Z,1014.93
2019-02-16T03:20:52.086Z,1014.93
2019-02-16T03:22:00.601Z,1014.91
2019-02-16T03:22:52.037Z,1014.91
2019-02-16T03:23:52.013Z,1014.88
2019-02-16T03:24:51.988Z,1014.96
2019-02-16T03:25:51.962Z,1014.94
2019-02-16T03:26:51.938Z,1014.89
2019-02-16T03:27:51.914Z,1014.89
2019-02-16T03:28:51.898Z,1014.89
2019-02-16T03:29:51.866Z,1014.88
2019-02-16T03:30:51.838Z,1014.90
2019-02-16T03:31:51.835Z,1014.85
2019-02-16T03:32:51.792Z,1014.82
2019-02-16T03:33:51.769Z,1014.82
2019-02-16T03:34:51.747Z,1014.82
2019-02-16T03:35:51.720Z,1014.88
2019-02-16T03:36:51.697Z,1014.87
2019-02-16T03:37:51.674Z,1014.88
2019-02-16T03:38:51.645Z,1014.91
2019-02-16T03:39:51.621Z,1014.90
2019-02-16T03:40:51.592Z,1014.95
2019-02-16T03:41:51.563Z,1014.95
2019-02-16T03:42:51.546Z,1014.98
2019-02-16T03:43:51.533Z,1014.95
2019-02-16T03:44:51.504Z,1014.97
2019-02-16T03:45:51.469Z,1014.97
2019-02-16T03:46:51.452Z,1014.99
2019-02-16T03:47:51.428Z,1015.03
2019-02-16T03:48:51.406Z,1015.03
2019-02-16T03:49:51.381Z,1015.02
2019-02-16T03:50:51.345Z,1015.03
2019-02-16T03:51:51.317Z,1015.03
2019-02-16T03:52:51.303Z,1015.04
2019-02-16T03:53:51.273Z,1015.02
2019-02-16T03:54:51.246Z,1015.02
2019-02-16T03:55:51.225Z,1015.11
2019-02-16T03:56:51.195Z,1015.07
2019-02-16T03:57:51.173Z,1015.07
2019-02-16T03:58:51.151Z,1015.06
2019-02-16T03:59:51.141Z,1015.02
2019-02-16T04:00:51.102Z,1015.02
2019-02-16T04:01:51.079Z,1015.02
2019-02-16T04:02:51.049Z,1015.03
2019-02-16T04:03:51.026Z,1015.00
2019-02-16T04:04:51.000Z,1015.00
2019-02-16T04:05:50.985Z,1015.07
2019-02-16T04:06:50.977Z,1015.04
2019-02-16T04:07:50.929Z,1015.06
2019-02-16T04:08:50.900Z,1014.99
2019-02-16T04:09:50.887Z,1015.03
2019-02-16T04:10:50.850Z,1015.00
2019-02-16T04:11:50.840Z,1015.01
2019-02-16T04:12:50.801Z,1015.02
2019-02-16T04:13:50.776Z,1015.06
2019-02-16T04:14:50.754Z,1015.05
2019-02-16T04:15:50.726Z,1015.04
2019-02-16T04:16:50.702Z,1015.05
2019-02-16T04:17:57.848Z,1015.06
2019-02-16T04:19:54.930Z,1015.02
2019-02-16T04:20:54.871Z,1015.06
2019-02-16T04:22:59.053Z,1015.09
2019-02-16T04:23:59.025Z,1015.11
2019-02-16T04:26:03.210Z,1015.06
2019-02-16T04:27:03.174Z,1015.12
2019-02-16T04:28:56.276Z,1015.11
2019-02-16T04:29:56.263Z,1015.17
2019-02-16T04:32:00.447Z,1015.17
2019-02-16T04:33:00.405Z,1015.18
2019-02-16T04:35:04.588Z,1015.14
2019-02-16T04:36:04.570Z,1015.15
2019-02-16T04:38:08.733Z,1015.19
2019-02-16T04:39:08.693Z,1015.19
2019-02-16T04:41:12.886Z,1015.21
2019-02-16T04:42:12.850Z,1015.14
2019-02-16T04:44:17.035Z,1015.11
2019-02-16T04:45:16.995Z,1015.13
2019-02-16T04:47:21.171Z,1015.12
2019-02-16T04:48:21.140Z,1015.09
2019-02-16T04:50:25.330Z,1015.08
2019-02-16T04:51:25.285Z,1015.06
2019-02-16T04:53:29.487Z,1015.04
2019-02-16T04:54:29.456Z,1015.08
2019-02-16T04:56:33.662Z,1015.08
2019-02-16T04:57:33.610Z,1015.08
2019-02-16T04:59:37.806Z,1015.05
2019-02-16T05:00:37.780Z,1015.02
2019-02-16T05:02:41.956Z,1015.02
2019-02-16T05:03:41.916Z,1015.02
2019-02-16T05:05:46.119Z,1015.01
2019-02-16T05:06:46.060Z,1015.01
2019-02-16T05:08:40.019Z,1015.00
2019-02-16T05:09:39.980Z,1015.00
2019-02-16T05:11:44.152Z,1015.04
2019-02-16T05:12:44.120Z,1014.99
2019-02-16T05:14:48.329Z,1015.01
2019-02-16T05:15:48.268Z,1015.00
2019-02-16T05:17:52.442Z,1014.98
2019-02-16T05:18:52.416Z,1014.93
2019-02-16T05:20:56.609Z,1014.95
2019-02-16T05:21:56.569Z,1014.95
2019-02-16T05:24:00.748Z,1014.89
2019-02-16T05:25:00.717Z,1014.96
2019-02-16T05:27:04.926Z,1014.96
2019-02-16T05:28:04.883Z,1015.02
2019-02-16T05:30:09.073Z,1014.98
2019-02-16T05:31:09.043Z,1014.96
2019-02-16T05:33:13.234Z,1014.99
2019-02-16T05:34:13.196Z,1014.96
2019-02-16T05:36:17.376Z,1014.95
2019-02-16T05:37:17.345Z,1014.86
2019-02-16T05:39:10.467Z,1014.90
2019-02-16T05:40:10.418Z,1014.88
2019-02-16T05:42:14.596Z,1014.92
2019-02-16T05:43:14.576Z,1014.90
2019-02-16T05:45:18.756Z,1014.88
2019-02-16T05:46:18.717Z,1014.91
2019-02-16T05:48:22.894Z,1014.90
2019-02-16T05:49:22.891Z,1014.89
2019-02-16T05:51:27.062Z,1014.93
2019-02-16T05:52:27.019Z,1014.94
2019-02-16T05:54:31.195Z,1014.95
2019-02-16T05:55:31.171Z,1014.92
2019-02-16T05:57:35.354Z,1014.95
2019-02-16T05:58:35.316Z,1014.90
2019-02-16T06:00:39.523Z,1014.93
2019-02-16T06:01:39.458Z,1014.93
2019-02-16T06:03:43.658Z,1015.00
2019-02-16T06:04:43.619Z,1014.92
2019-02-16T06:06:47.829Z,1014.96
2019-02-16T06:07:47.794Z,1014.99
2019-02-16T06:09:51.988Z,1014.96
2019-02-16T06:10:51.947Z,1015.01
2019-02-16T06:12:56.123Z,1014.98
2019-02-16T06:13:56.094Z,1014.96
2019-02-16T06:16:00.289Z,1015.02
2019-02-16T06:17:00.248Z,1015.03
2019-02-16T06:18:53.351Z,1015.04
2019-02-16T06:19:53.315Z,1015.02
2019-02-16T06:21:58.357Z,1015.05
2019-02-16T06:23:04.403Z,1015.08
2019-02-16T06:25:02.509Z,1015.11
2019-02-16T06:26:02.464Z,1015.11
2019-02-16T06:28:06.652Z,1015.17
2019-02-16T06:29:06.609Z,1015.15
2019-02-16T06:31:10.808Z,1015.20
2019-02-16T06:32:10.780Z,1015.21
2019-02-16T06:34:14.969Z,1015.18
2019-02-16T06:35:14.931Z,1015.14
2019-02-16T06:37:19.141Z,1015.14
2019-02-16T06:38:19.112Z,1015.18
2019-02-16T06:40:23.296Z,1015.13
2019-02-16T06:41:23.259Z,1015.19
2019-02-16T06:43:27.436Z,1015.22
2019-02-16T06:44:27.405Z,1015.22
2019-02-16T06:46:31.602Z,1015.17
2019-02-16T06:47:31.553Z,1015.23
2019-02-16T06:49:24.655Z,1015.23
2019-02-16T06:50:24.627Z,1015.23
2019-02-16T06:52:28.822Z,1015.24
2019-02-16T06:53:28.780Z,1015.29
2019-02-16T06:55:32.955Z,1015.27
2019-02-16T06:56:32.927Z,1015.26
2019-02-16T06:58:37.122Z,1015.35
2019-02-16T06:59:37.093Z,1015.37
2019-02-16T07:01:41.265Z,1015.39
2019-02-16T07:02:41.232Z,1015.43
2019-02-16T07:04:45.429Z,1015.44
2019-02-16T07:05:45.389Z,1015.41
2019-02-16T07:07:49.570Z,1015.45
2019-02-16T07:08:49.543Z,1015.42
2019-02-16T07:10:53.736Z,1015.46
2019-02-16T07:11:53.695Z,1015.43
2019-02-16T07:13:57.893Z,1015.51
2019-02-16T07:14:57.868Z,1015.50
2019-02-16T07:17:02.075Z,1015.53
2019-02-16T07:18:02.035Z,1015.56
2019-02-16T07:20:07.773Z,1015.60
2019-02-16T07:21:06.195Z,1015.61
2019-02-16T07:23:10.394Z,1015.61
2019-02-16T07:24:10.354Z,1015.61
2019-02-16T07:26:14.560Z,1015.63
2019-02-16T07:27:14.520Z,1015.61
2019-02-16T07:29:07.648Z,1015.63
2019-02-16T07:30:07.617Z,1015.66
2019-02-16T07:32:11.793Z,1015.68
2019-02-16T07:33:11.778Z,1015.70
2019-02-16T07:35:15.974Z,1015.71
2019-02-16T07:36:15.944Z,1015.71
2019-02-16T07:38:20.132Z,1015.69
2019-02-16T07:39:20.110Z,1015.70
2019-02-16T07:41:24.321Z,1015.69
2019-02-16T07:42:24.273Z,1015.74
2019-02-16T07:44:28.469Z,1015.78
2019-02-16T07:45:28.446Z,1015.76
2019-02-16T07:47:32.650Z,1015.77
2019-02-16T07:48:32.616Z,1015.83
2019-02-16T07:50:36.808Z,1015.81
2019-02-16T07:51:36.788Z,1015.78
2019-02-16T07:53:40.979Z,1015.80
2019-02-16T07:54:40.951Z,1015.73
2019-02-16T07:55:40.934Z,1015.76
2019-02-16T07:56:40.940Z,1015.74
2019-02-16T07:57:40.900Z,1015.76
2019-02-16T07:58:40.881Z,1015.77
2019-02-16T07:59:40.863Z,1015.75
2019-02-16T08:00:40.846Z,1015.80
2019-02-16T08:01:40.829Z,1015.76
2019-02-16T08:02:40.807Z,1015.77
2019-02-16T08:03:40.788Z,1015.79
2019-02-16T08:04:40.778Z,1015.83
2019-02-16T08:05:40.760Z,1015.80
2019-02-16T08:06:40.746Z,1015.85
2019-02-16T08:07:42.715Z,1015.86
2019-02-16T08:08:40.714Z,1015.86
2019-02-16T08:09:40.705Z,1015.81
2019-02-16T08:10:40.678Z,1015.83
2019-02-16T08:11:40.661Z,1015.81
2019-02-16T08:12:40.663Z,1015.82
2019-02-16T08:13:40.629Z,1015.83
2019-02-16T08:14:40.613Z,1015.84
2019-02-16T08:15:40.596Z,1015.83
2019-02-16T08:16:40.582Z,1015.85
2019-02-16T08:17:40.565Z,1015.88
2019-02-16T08:18:40.550Z,1015.87
2019-02-16T08:19:40.535Z,1015.88
2019-02-16T08:20:40.518Z,1015.92
2019-02-16T08:21:40.499Z,1015.89
2019-02-16T08:22:40.487Z,1015.85
2019-02-16T08:23:40.679Z,1015.84
2019-02-16T08:24:40.456Z,1015.85
2019-02-16T08:25:40.439Z,1015.80
2019-02-16T08:26:40.429Z,1015.82
2019-02-16T08:27:40.411Z,1015.84
2019-02-16T08:28:40.402Z,1015.81
2019-02-16T08:29:40.406Z,1015.82
2019-02-16T08:30:40.369Z,1015.81
2019-02-16T08:31:40.357Z,1015.84
2019-02-16T08:32:40.334Z,1015.82
2019-02-16T08:33:40.331Z,1015.77
2019-02-16T08:34:40.312Z,1015.75
2019-02-16T08:35:40.297Z,1015.71
2019-02-16T08:36:40.283Z,1015.74
2019-02-16T08:37:40.269Z,1015.77
2019-02-16T08:38:40.258Z,1015.67
2019-02-16T08:39:40.242Z,1015.67
2019-02-16T08:40:40.229Z,1015.62
2019-02-16T08:41:40.209Z,1015.63
2019-02-16T08:42:40.202Z,1015.66
2019-02-16T08:43:40.191Z,1015.64
2019-02-16T08:44:40.173Z,1015.66
2019-02-16T08:45:40.165Z,1015.65
2019-02-16T08:46:40.149Z,1015.66
2019-02-16T08:47:40.137Z,1015.67
2019-02-16T08:48:40.125Z,1015.69
2019-02-16T08:49:40.110Z,1015.68
2019-02-16T08:50:40.099Z,1015.68
2019-02-16T08:51:40.084Z,1015.71
2019-02-16T08:52:40.073Z,1015.69
2019-02-16T08:53:49.124Z,1015.69
2019-02-16T08:54:40.040Z,1015.70
2019-02-16T08:55:40.037Z,1015.67
2019-02-16T08:56:40.038Z,1015.67
2019-02-16T08:57:40.010Z,1015.67
2019-02-16T08:58:39.998Z,1015.67
2019-02-16T08:59:39.986Z,1015.67
2019-02-16T09:00:39.975Z,1015.71
2019-02-16T09:01:39.963Z,1015.67
2019-02-16T09:02:39.998Z,1015.71
2019-02-16T09:03:39.942Z,1015.67
2019-02-16T09:04:39.933Z,1015.65
2019-02-16T09:05:39.916Z,1015.58
2019-02-16T09:06:39.905Z,1015.63
2019-02-16T09:07:39.911Z,1015.62
2019-02-16T09:08:39.886Z,1015.53
2019-02-16T09:09:39.875Z,1015.52
2019-02-16T09:10:39.856Z,1015.52
2019-02-16T09:11:39.899Z,1015.48
2019-02-16T09:12:39.830Z,1015.52
2019-02-16T09:13:39.821Z,1015.52
2019-02-16T09:14:39.813Z,1015.53
2019-02-16T09:15:39.803Z,1015.46
2019-02-16T09:16:39.789Z,1015.43
2019-02-16T09:17:39.798Z,1015.44
2019-02-16T09:18:39.777Z,1015.43
2019-02-16T09:19:39.762Z,1015.43
2019-02-16T09:20:39.759Z,1015.44
2019-02-16T09:21:39.737Z,1015.47
2019-02-16T09:22:39.726Z,1015.44
2019-02-16T09:23:39.715Z,1015.47
2019-02-16T09:24:39.708Z,1015.44
2019-02-16T09:25:39.695Z,1015.48
2019-02-16T09:26:39.689Z,1015.46
2019-02-16T09:27:39.680Z,1015.48
2019-02-16T09:28:39.661Z,1015.46
2019-02-16T09:29:39.651Z,1015.42
2019-02-16T09:30:39.638Z,1015.43
2019-02-16T09:31:39.633Z,1015.39
2019-02-16T09:32:39.619Z,1015.41
2019-02-16T09:33:39.618Z,1015.38
2019-02-16T09:34:39.602Z,1015.37
2019-02-16T09:35:39.603Z,1015.41
2019-02-16T09:36:39.582Z,1015.38
2019-02-16T09:37:39.568Z,1015.46
2019-02-16T09:38:39.559Z,1015.40
2019-02-16T09:39:39.558Z,1015.40
2019-02-16T09:40:39.539Z,1015.43
2019-02-16T09:41:39.533Z,1015.48
2019-02-16T09:42:39.517Z,1015.49
2019-02-16T09:43:39.513Z,1015.48
2019-02-16T09:44:39.497Z,1015.49
2019-02-16T09:45:39.493Z,1015.50
2019-02-16T09:46:39.485Z,1015.46
2019-02-16T09:47:39.472Z,1015.47
2019-02-16T09:48:39.460Z,1015.46
2019-02-16T09:49:39.459Z,1015.44
2019-02-16T09:50:39.446Z,1015.41
2019-02-16T09:51:39.434Z,1015.40
2019-02-16T09:52:39.423Z,1015.40
2019-02-16T09:53:39.434Z,1015.39
2019-02-16T09:54:39.406Z,1015.43
2019-02-16T09:55:39.397Z,1015.41
2019-02-16T09:56:39.386Z,1015.41
2019-02-16T09:57:39.376Z,1015.41
2019-02-16T09:58:39.370Z,1015.42
2019-02-16T09:59:39.359Z,1015.39
2019-02-16T10:00:39.349Z,1015.42
2019-02-16T10:01:39.343Z,1015.41
2019-02-16T10:02:39.324Z,1015.37
2019-02-16T10:03:39.343Z,1015.41
2019-02-16T10:04:39.311Z,1015.38
2019-02-16T10:05:39.305Z,1015.37
2019-02-16T10:06:39.292Z,1015.39
2019-02-16T10:07:39.285Z,1015.41
2019-02-16T10:08:39.274Z,1015.41
2019-02-16T10:09:39.275Z,1015.40
2019-02-16T10:10:39.255Z,1015.40
2019-02-16T10:11:39.255Z,1015.42
2019-02-16T10:12:39.234Z,1015.42
2019-02-16T10:13:39.227Z,1015.46
2019-02-16T10:14:39.218Z,1015.45
2019-02-16T10:15:39.212Z,1015.46
2019-02-16T10:16:39.202Z,1015.50
2019-02-16T10:17:39.188Z,1015.43
2019-02-16T10:18:39.205Z,1015.42
2019-02-16T10:19:39.171Z,1015.40
2019-02-16T10:20:40.463Z,1015.37
2019-02-16T10:21:39.152Z,1015.43
2019-02-16T10:22:40.119Z,1015.40
2019-02-16T10:23:39.135Z,1015.43
2019-02-16T10:24:39.123Z,1015.44
2019-02-16T10:25:39.116Z,1015.43
2019-02-16T10:26:39.116Z,1015.44
2019-02-16T10:27:39.095Z,1015.45
2019-02-16T10:28:39.086Z,1015.44
2019-02-16T10:29:39.087Z,1015.46
2019-02-16T10:30:39.069Z,1015.45
2019-02-16T10:31:39.060Z,1015.49
2019-02-16T10:32:39.049Z,1015.51
2019-02-16T10:33:39.043Z,1015.52
2019-02-16T10:34:39.031Z,1015.49
2019-02-16T10:35:39.026Z,1015.53
2019-02-16T10:36:39.012Z,1015.56
2019-02-16T10:37:39.003Z,1015.51
2019-02-16T10:38:38.994Z,1015.49
2019-02-16T10:39:38.989Z,1015.46
2019-02-16T10:40:39.021Z,1015.48
2019-02-16T10:41:38.965Z,1015.46
2019-02-16T10:42:38.998Z,1015.45
2019-02-16T10:43:38.949Z,1015.50
2019-02-16T10:44:38.941Z,1015.43
2019-02-16T10:45:38.929Z,1015.45
2019-02-16T10:46:38.917Z,1015.44
2019-02-16T10:47:38.909Z,1015.43
2019-02-16T10:48:38.903Z,1015.42
2019-02-16T10:49:38.896Z,1015.45
2019-02-16T10:50:38.884Z,1015.41
2019-02-16T10:51:38.873Z,1015.39
2019-02-16T10:52:38.902Z,1015.40
2019-02-16T10:53:38.852Z,1015.41
2019-02-16T10:54:38.848Z,1015.43
2019-02-16T10:55:38.838Z,1015.43
2019-02-16T10:56:38.830Z,1015.48
2019-02-16T10:57:38.840Z,1015.43
2019-02-16T10:58:38.811Z,1015.46
2019-02-16T10:59:38.806Z,1015.39
2019-02-16T11:00:38.797Z,1015.39
2019-02-16T11:01:38.776Z,1015.38
2019-02-16T11:02:38.773Z,1015.29
2019-02-16T11:03:38.767Z,1015.33
2019-02-16T11:04:38.767Z,1015.28
2019-02-16T11:05:38.748Z,1015.26
2019-02-16T11:06:38.737Z,1015.25
2019-02-16T11:07:38.727Z,1015.23
2019-02-16T11:08:38.719Z,1015.25
2019-02-16T11:09:38.726Z,1015.22
2019-02-16T11:10:38.738Z,1015.20
2019-02-16T11:11:38.697Z,1015.15
2019-02-16T11:12:38.680Z,1015.15
2019-02-16T11:13:38.674Z,1015.14
2019-02-16T11:14:38.669Z,1015.16
2019-02-16T11:15:38.660Z,1015.10
2019-02-16T11:16:38.649Z,1015.11
2019-02-16T11:17:38.638Z,1015.13
2019-02-16T11:18:38.687Z,1015.08
2019-02-16T11:19:38.616Z,1015.09
2019-02-16T11:20:38.613Z,1015.11
2019-02-16T11:21:38.604Z,1015.09
2019-02-16T11:22:38.594Z,1015.13
2019-02-16T11:23:38.589Z,1015.11
2019-02-16T11:24:38.577Z,1015.11
2019-02-16T11:25:38.568Z,1015.11
2019-02-16T11:26:38.560Z,1015.06
2019-02-16T11:27:40.343Z,1015.06
2019-02-16T11:28:38.541Z,1015.07
2019-02-16T11:29:38.528Z,1015.04
2019-02-16T11:30:38.523Z,1015.06
2019-02-16T11:31:38.572Z,1015.02
2019-02-16T11:32:38.506Z,1015.02
2019-02-16T11:33:38.496Z,1015.00
2019-02-16T11:34:38.490Z,1015.02
2019-02-16T11:35:40.334Z,1015.02
2019-02-16T11:36:38.471Z,1015.02
2019-02-16T11:37:38.465Z,1015.04
2019-02-16T11:38:38.456Z,1015.05
2019-02-16T11:39:38.447Z,1015.04
2019-02-16T11:40:38.445Z,1015.06
2019-02-16T11:41:38.430Z,1015.05
2019-02-16T11:42:38.428Z,1014.98
2019-02-16T11:43:38.417Z,1015.00
2019-02-16T11:44:38.402Z,1014.98
2019-02-16T11:45:38.394Z,1014.97
2019-02-16T11:46:38.387Z,1014.97
2019-02-16T11:47:38.378Z,1014.97
2019-02-16T11:48:38.362Z,1014.98
2019-02-16T11:49:38.361Z,1014.92
2019-02-16T11:50:38.351Z,1014.92
2019-02-16T11:51:38.417Z,1014.89
2019-02-16T11:52:38.348Z,1014.90
2019-02-16T11:53:38.325Z,1014.86
2019-02-16T11:54:45.443Z,1014.85
2019-02-16T11:55:38.308Z,1014.85
2019-02-16T11:56:38.304Z,1014.81
2019-02-16T11:57:38.296Z,1014.80
2019-02-16T11:58:38.286Z,1014.82
2019-02-16T11:59:38.275Z,1014.79
2019-02-16T12:00:40.177Z,1014.77
2019-02-16T12:01:38.258Z,1014.77
2019-02-16T12:02:39.984Z,1014.76
2019-02-16T12:03:38.240Z,1014.74
2019-02-16T12:04:38.229Z,1014.75
2019-02-16T12:05:38.223Z,1014.75
2019-02-16T12:06:38.215Z,1014.69
2019-02-16T12:07:38.205Z,1014.69
2019-02-16T12:08:38.199Z,1014.67
2019-02-16T12:09:38.193Z,1014.67
2019-02-16T12:10:38.186Z,1014.64
2019-02-16T12:11:38.172Z,1014.62
2019-02-16T12:12:38.159Z,1014.58
2019-02-16T12:13:38.157Z,1014.53
2019-02-16T12:14:38.148Z,1014.51
2019-02-16T12:15:38.139Z,1014.52
2019-02-16T12:16:38.127Z,1014.45
2019-02-16T12:17:38.121Z,1014.50
2019-02-16T12:18:38.103Z,1014.49
2019-02-16T12:19:38.106Z,1014.41
2019-02-16T12:20:38.100Z,1014.43
2019-02-16T12:21:38.084Z,1014.40
2019-02-16T12:22:38.069Z,1014.43
2019-02-16T12:23:38.068Z,1014.37
2019-02-16T12:24:38.057Z,1014.41
2019-02-16T12:25:38.049Z,1014.40
2019-02-16T12:26:38.040Z,1014.40
2019-02-16T12:27:38.028Z,1014.37
2019-02-16T12:28:38.020Z,1014.37
2019-02-16T12:29:38.014Z,1014.35
2019-02-16T12:30:38.000Z,1014.33
2019-02-16T12:31:37.990Z,1014.32
2019-02-16T12:32:37.981Z,1014.31
2019-02-16T12:33:37.972Z,1014.28
2019-02-16T12:34:37.964Z,1014.26
2019-02-16T12:35:37.960Z,1014.26
2019-02-16T12:36:37.945Z,1014.25
2019-02-16T12:37:37.936Z,1014.27
2019-02-16T12:38:37.925Z,1014.28
2019-02-16T12:39:37.914Z,1014.27
2019-02-16T12:40:37.905Z,1014.22
2019-02-16T12:41:37.895Z,1014.27
2019-02-16T12:42:37.887Z,1014.26
2019-02-16T12:43:37.875Z,1014.26
2019-02-16T12:44:37.861Z,1014.22
2019-02-16T12:45:37.874Z,1014.17
2019-02-16T12:46:37.843Z,1014.17
2019-02-16T12:47:37.834Z,1014.16
2019-02-16T12:48:37.824Z,1014.14
2019-02-16T12:49:37.815Z,1014.12
2019-02-16T12:50:37.807Z,1014.08
2019-02-16T12:51:37.792Z,1014.08
2019-02-16T12:52:37.783Z,1014.08
2019-02-16T12:53:37.772Z,1014.05
2019-02-16T12:54:37.763Z,1014.06
2019-02-16T12:55:37.755Z,1014.01
2019-02-16T12:56:37.737Z,1014.01
2019-02-16T12:57:37.734Z,1013.93
2019-02-16T12:58:37.736Z,1013.94
2019-02-16T12:59:37.710Z,1013.91
2019-02-16T13:00:37.710Z,1013.90
2019-02-16T13:01:37.690Z,1013.85
2019-02-16T13:02:37.678Z,1013.88
2019-02-16T13:03:37.670Z,1013.88
2019-02-16T13:04:37.659Z,1013.80
2019-02-16T13:05:37.648Z,1013.81
2019-02-16T13:06:37.637Z,1013.77
2019-02-16T13:07:37.636Z,1013.78
2019-02-16T13:08:37.620Z,1013.74
2019-02-16T13:09:37.607Z,1013.72
2019-02-16T13:10:37.600Z,1013.71
2019-02-16T13:11:37.586Z,1013.71
2019-02-16T13:12:37.573Z,1013.74
2019-02-16T13:13:37.579Z,1013.72
2019-02-16T13:14:37.550Z,1013.74
2019-02-16T13:15:37.543Z,1013.71
2019-02-16T13:16:37.528Z,1013.73
2019-02-16T13:17:37.523Z,1013.69
2019-02-16T13:18:37.506Z,1013.69
2019-02-16T13:19:37.497Z,1013.71
2019-02-16T13:20:37.486Z,1013.70